Country
Station

 

Weather  for  Aeroporto Araxá (Araxá/MG)  -  Brazil    Brazil

  
13 °C (55 °F)
    
 
 

Current METAR for Aeroporto Araxá (Araxá/MG) is :

SBAX 021000Z 13004KT CAVOK 13/11 Q1020

 

This is a report for Aeroporto Araxá (Araxá/MG) - Brazil.
 
The report was made 2 hours and 35 minutes ago, at 10:00 UTC .
The wind was blowing at a speed of 2.1 meters per second (4.6 miles per hour) from southeast (130°).
 
The temperature was 13 °C (55 °F), with a dew-point at 11 °C (52 °F).
The atmospheric pressure was 1020 hPa (30.12 inHg).
The relative humidity was 87.6%.
 
There were no clouds below 1500 meter (5000 feet) and no cumulonimbus clouds.
 
The overall visibility was greater than 10 kilometers (6.2 miles).
 

 
 
 
 

Country :   A   B   C   D   E   F   G   H   I   J   K   L   M   N   O   P   Q   R   S   T   U   V   W   Y   Z

 

Site Info  |  Disclaimer  |  Credits  |  Privacy
Contact us  |  Add to favorites
© 2013-2020 METARs - All rights reserved